Time;durP1;ratioP1;P1;durP2;ratioP2;P2;SDS_P1;SDS_P2;PMS_P1;PMS_P2;Temp;Humidity;BMP_temperature;BMP_pressure;BME280_temperature;BME280_humidity;BME280_pressure;Samples;Min_cycle;Max_cycle;Signal;HPM_P1;HPM_P2
2023/04/26 00:01:04;;;;;;;8.88;6.72;;;;;;;2.83;80.67;101802.59;4998624;28;20043;-71
2023/04/26 00:03:31;;;;;;;15.82;7.57;;;;;;;2.82;80.50;101809.53;5001818;28;20096;-72
2023/04/26 00:06:03;;;;;;;14.55;7.50;;;;;;;2.79;80.42;101805.16;4998862;28;20046;-72
2023/04/26 00:08:30;;;;;;;12.40;6.90;;;;;;;2.75;80.50;101802.44;4999295;28;20050;-71
2023/04/26 00:10:57;;;;;;;13.07;7.50;;;;;;;2.72;80.57;101813.69;5022661;28;20041;-72
2023/04/26 00:13:24;;;;;;;14.00;7.45;;;;;;;2.67;80.64;101807.53;5005999;28;20050;-72
2023/04/26 00:15:51;;;;;;;13.57;7.88;;;;;;;2.64;80.69;101810.09;5003417;28;20035;-71
2023/04/26 00:18:18;;;;;;;12.98;6.97;;;;;;;2.61;80.59;101807.41;5003530;28;20035;-72
2023/04/26 00:20:46;;;;;;;11.70;7.50;;;;;;;2.60;80.79;101808.25;5002786;28;20121;-72
2023/04/26 00:23:13;;;;;;;15.30;7.68;;;;;;;2.62;81.65;101817.88;5007602;28;20039;-71
2023/04/26 00:25:40;;;;;;;16.90;8.63;;;;;;;2.61;81.85;101810.91;5002746;28;20042;-71
2023/04/26 00:28:07;;;;;;;19.77;8.68;;;;;;;2.59;81.94;101807.41;5006847;28;20042;-71
2023/04/26 00:30:36;;;;;;;13.25;8.48;;;;;;;2.56;81.67;101804.72;4997273;28;20130;-71
2023/04/26 00:33:03;;;;;;;12.32;7.60;;;;;;;2.55;82.05;101809.91;4993325;28;20038;-71
2023/04/26 00:35:31;;;;;;;14.75;8.15;;;;;;;2.53;82.25;101809.00;4999436;28;20043;-70
2023/04/26 00:37:58;;;;;;;14.43;7.72;;;;;;;2.49;82.15;101806.34;4997120;28;20445;-70
2023/04/26 00:40:25;;;;;;;14.77;8.60;;;;;;;2.47;82.44;101813.25;4995274;28;20523;-70
2023/04/26 00:42:59;;;;;;;17.15;8.70;;;;;;;2.47;82.39;101809.75;4998587;28;20047;-70
2023/04/26 00:45:26;;;;;;;16.77;8.30;;;;;;;2.44;82.68;101794.13;5004477;28;20541;-71
2023/04/26 00:47:53;;;;;;;15.38;7.97;;;;;;;2.46;83.47;101797.59;5000428;28;20058;-70
2023/04/26 00:50:20;;;;;;;14.93;8.50;;;;;;;2.45;83.40;101801.94;4993231;28;20948;-70
2023/04/26 00:52:49;;;;;;;16.92;8.85;;;;;;;2.47;83.23;101799.34;4999925;28;20497;-71
2023/04/26 00:55:20;;;;;;;16.60;8.60;;;;;;;2.46;83.07;101800.19;4998198;28;20046;-71
2023/04/26 00:57:47;;;;;;;16.38;9.43;;;;;;;2.45;83.41;101796.72;5011889;28;20930;-70
2023/04/26 01:00:15;;;;;;;19.52;9.40;;;;;;;2.44;83.27;101800.19;4990801;28;20135;-70
2023/04/26 01:02:43;;;;;;;20.20;8.57;;;;;;;2.44;83.23;101801.91;4997457;28;20050;-70
2023/04/26 01:05:10;;;;;;;16.88;8.93;;;;;;;2.42;83.48;101807.06;5021460;28;20656;-71
2023/04/26 01:07:37;;;;;;;19.80;10.40;;;;;;;2.40;83.47;101798.34;5015610;28;20053;-70
2023/04/26 01:10:05;;;;;;;15.52;8.77;;;;;;;2.37;83.44;101793.13;4996059;28;20123;-70
2023/04/26 01:12:32;;;;;;;16.17;9.65;;;;;;;2.35;83.33;101796.50;5001398;28;20062;-71
2023/04/26 01:14:59;;;;;;;19.77;9.93;;;;;;;2.30;83.50;101796.44;5003025;28;20051;-71
2023/04/26 01:17:27;;;;;;;16.80;9.18;;;;;;;2.27;83.49;101802.47;5012471;28;20043;-72
2023/04/26 01:19:56;;;;;;;19.45;9.90;;;;;;;2.24;83.89;101798.91;4998843;28;20089;-71
2023/04/26 01:22:23;;;;;;;16.20;9.93;;;;;;;2.21;84.13;101806.66;5005481;28;20050;-71
2023/04/26 01:24:53;;;;;;;18.90;10.10;;;;;;;2.19;84.15;101806.63;4986456;28;20042;-72
2023/04/26 01:27:20;;;;;;;19.00;10.05;;;;;;;2.17;84.20;101803.13;4985813;28;20050;-71
2023/04/26 01:29:48;;;;;;;16.02;10.35;;;;;;;2.17;84.71;101805.72;5000309;28;20038;-71
2023/04/26 01:32:15;;;;;;;16.92;10.55;;;;;;;2.14;84.64;101798.75;5002193;28;20535;-72
2023/04/26 01:34:42;;;;;;;16.73;9.73;;;;;;;2.12;84.69;101807.38;5002782;28;20045;-72
2023/04/26 01:37:10;;;;;;;17.73;10.57;;;;;;;2.10;84.67;101803.84;4999298;28;20121;-71
2023/04/26 01:39:37;;;;;;;17.70;10.05;;;;;;;2.07;84.42;101807.28;4983236;28;20034;-72
2023/04/26 01:42:04;;;;;;;17.77;10.10;;;;;;;2.06;84.99;101804.63;5002193;28;20042;-71
2023/04/26 01:44:31;;;;;;;17.23;10.70;;;;;;;2.06;85.19;101810.72;5001168;28;20038;-72
2023/04/26 01:47:00;;;;;;;16.90;10.70;;;;;;;2.05;85.15;101813.28;5031420;28;20039;-72
2023/04/26 01:49:27;;;;;;;17.52;11.02;;;;;;;2.00;85.09;101807.97;5007067;28;20053;-72
2023/04/26 01:51:54;;;;;;;23.60;11.00;;;;;;;1.99;85.00;101814.03;5003010;28;20053;-72
2023/04/26 01:54:23;;;;;;;19.65;10.63;;;;;;;1.98;85.25;101817.50;4979064;28;21287;-71
2023/04/26 01:56:52;;;;;;;18.75;11.45;;;;;;;1.96;85.19;101808.78;5002005;28;20478;-72
2023/04/26 01:59:19;;;;;;;17.63;10.25;;;;;;;1.93;85.28;101816.50;5004107;28;20042;-71
2023/04/26 02:01:46;;;;;;;16.90;10.90;;;;;;;1.91;85.50;101815.59;4998500;28;20107;-71
2023/04/26 02:04:13;;;;;;;20.38;11.25;;;;;;;1.88;85.70;101807.75;5001529;28;20066;-72
2023/04/26 02:06:41;;;;;;;17.00;10.73;;;;;;;1.84;85.64;101802.47;5001738;28;20042;-71
2023/04/26 02:09:08;;;;;;;21.25;10.52;;;;;;;1.82;85.86;101809.34;5002244;28;20122;-73
2023/04/26 02:11:39;;;;;;;19.35;11.65;;;;;;;1.80;85.96;101811.03;4990659;28;20089;-73
2023/04/26 02:14:06;;;;;;;19.08;11.05;;;;;;;1.78;86.11;101804.91;5002631;28;20035;-72
2023/04/26 02:16:33;;;;;;;22.95;11.57;;;;;;;1.76;86.20;101801.44;5006136;28;20558;-72
2023/04/26 02:19:01;;;;;;;18.45;11.07;;;;;;;1.75;86.08;101802.28;5004896;28;20034;-73
2023/04/26 02:21:29;;;;;;;21.23;11.25;;;;;;;1.74;86.36;101803.13;5003038;28;20058;-73
2023/04/26 02:23:56;;;;;;;17.58;11.07;;;;;;;1.72;86.45;101810.00;4994460;28;20080;-73
2023/04/26 02:26:23;;;;;;;17.08;10.48;;;;;;;1.69;86.26;101802.13;5003700;28;20149;-73
2023/04/26 02:28:50;;;;;;;17.65;11.77;;;;;;;1.68;86.52;101816.88;4992020;28;20531;-72
2023/04/26 02:31:18;;;;;;;16.50;10.82;;;;;;;1.67;86.55;101807.31;5001060;28;20073;-72
2023/04/26 02:33:48;;;;;;;19.80;11.70;;;;;;;1.66;86.67;101812.47;5003378;28;20046;-72
2023/04/26 02:36:15;;;;;;;18.17;11.02;;;;;;;1.61;86.72;101814.97;4995100;28;20043;-72
2023/04/26 02:38:42;;;;;;;18.00;11.20;;;;;;;1.58;86.66;101812.31;5000861;28;20475;-71
2023/04/26 02:41:09;;;;;;;23.13;11.00;;;;;;;1.52;86.64;101806.97;4999010;28;20157;-72
2023/04/26 02:43:36;;;;;;;17.20;10.57;;;;;;;1.46;86.53;101807.72;4995941;28;20042;-71
2023/04/26 02:46:06;;;;;;;16.00;10.80;;;;;;;1.42;86.58;101805.88;4993837;28;20101;-71
2023/04/26 02:48:33;;;;;;;20.83;11.65;;;;;;;1.38;86.53;101812.72;5025564;28;20057;-72
2023/04/26 02:51:00;;;;;;;17.50;10.50;;;;;;;1.35;86.73;101810.03;4997147;28;20042;-71
2023/04/26 02:53:28;;;;;;;19.17;11.63;;;;;;;1.32;86.82;101815.19;4994879;28;20093;-72
2023/04/26 02:55:55;;;;;;;20.73;11.70;;;;;;;1.32;86.97;101811.69;5012117;28;20039;-72
2023/04/26 02:58:22;;;;;;;20.60;11.57;;;;;;;1.31;87.03;101807.34;4999464;28;20039;-71
2023/04/26 03:00:49;;;;;;;21.33;11.48;;;;;;;1.28;87.17;101804.66;5011357;28;20117;-71
2023/04/26 03:03:16;;;;;;;19.15;11.38;;;;;;;1.27;87.18;101809.00;4985284;28;20610;-72
2023/04/26 03:05:45;;;;;;;18.48;11.70;;;;;;;1.25;87.34;101808.06;5001410;28;20070;-71
2023/04/26 03:08:12;;;;;;;21.83;11.27;;;;;;;1.19;87.24;101793.22;5000630;28;20034;-72
2023/04/26 03:10:39;;;;;;;21.00;11.88;;;;;;;1.19;87.17;101795.81;5008414;28;20441;-71
2023/04/26 03:13:07;;;;;;;25.73;11.40;;;;;;;1.17;87.33;101807.03;5006439;28;20837;-72
2023/04/26 03:15:35;;;;;;;21.95;12.68;;;;;;;1.14;87.44;101805.22;4997760;28;20094;-71
2023/04/26 03:18:02;;;;;;;23.27;12.30;;;;;;;1.13;87.44;101805.19;5001586;28;20042;-71
2023/04/26 03:20:29;;;;;;;26.55;13.23;;;;;;;1.11;87.51;101799.94;4980549;28;20038;-71
2023/04/26 03:22:56;;;;;;;21.55;12.65;;;;;;;1.12;87.78;101795.66;5015943;28;20050;-71
2023/04/26 03:25:24;;;;;;;24.25;12.25;;;;;;;1.12;87.81;101798.25;5009109;28;20126;-72
2023/04/26 03:27:51;;;;;;;20.85;12.68;;;;;;;1.11;88.00;101799.94;5009702;28;20046;-72
2023/04/26 03:30:18;;;;;;;22.33;13.32;;;;;;;1.10;87.96;101795.59;5007266;28;20046;-72
2023/04/26 03:32:45;;;;;;;21.75;12.75;;;;;;;1.09;88.14;101793.84;5002666;28;20042;-72
2023/04/26 03:35:12;;;;;;;22.83;12.25;;;;;;;1.07;87.88;101790.31;5000618;28;20812;-71
2023/04/26 03:37:39;;;;;;;23.35;12.43;;;;;;;1.04;87.94;101790.28;5015882;28;20050;-72
2023/04/26 03:40:11;;;;;;;24.83;12.93;;;;;;;1.02;88.07;101792.81;5022759;28;20777;-72
2023/04/26 03:42:38;;;;;;;21.95;13.45;;;;;;;0.99;88.14;101790.16;5003632;28;20057;-72
2023/04/26 03:45:06;;;;;;;22.27;12.35;;;;;;;0.95;88.19;101785.72;4999021;28;20035;-71
2023/04/26 03:47:34;;;;;;;23.85;12.57;;;;;;;0.87;88.18;101776.88;5019168;28;20042;-72
2023/04/26 03:50:02;;;;;;;25.85;12.90;;;;;;;0.84;88.05;101789.75;5003693;28;20534;-72
2023/04/26 03:52:29;;;;;;;21.42;12.68;;;;;;;0.74;88.18;101784.34;5002183;28;20035;-72
2023/04/26 03:54:57;;;;;;;20.10;12.77;;;;;;;0.75;88.24;101795.63;4999520;28;20809;-72
2023/04/26 03:57:24;;;;;;;22.70;12.15;;;;;;;0.71;88.29;101793.78;5002042;28;20121;-72
2023/04/26 03:59:51;;;;;;;26.02;12.43;;;;;;;0.69;88.27;101788.56;5014650;28;20685;-72
2023/04/26 04:02:18;;;;;;;23.60;12.50;;;;;;;0.67;88.45;101786.72;4997398;28;20133;-72
2023/04/26 04:04:46;;;;;;;23.63;12.65;;;;;;;0.66;88.50;101782.41;4999216;28;20050;-72
2023/04/26 04:07:14;;;;;;;32.80;13.15;;;;;;;0.65;88.53;101785.84;5000086;28;20045;-73
2023/04/26 04:09:41;;;;;;;24.70;12.38;;;;;;;0.60;88.52;101788.31;5001053;28;20035;-73
2023/04/26 04:12:08;;;;;;;37.50;13.60;;;;;;;0.57;88.52;101791.69;5002315;28;20050;-73
2023/04/26 04:14:35;;;;;;;30.33;13.15;;;;;;;0.55;88.54;101795.97;4999156;28;20571;-72
2023/04/26 04:17:02;;;;;;;30.85;13.85;;;;;;;0.55;88.72;101797.69;5014363;28;20556;-72
2023/04/26 04:19:29;;;;;;;37.08;14.60;;;;;;;0.58;88.82;101797.78;4989314;28;20118;-72
2023/04/26 04:21:56;;;;;;;33.13;14.90;;;;;;;0.61;89.13;101790.94;5015056;28;20050;-72
2023/04/26 04:24:25;;;;;;;44.25;16.00;;;;;;;0.67;89.55;101786.72;4983484;28;20039;-72
2023/04/26 04:26:52;;;;;;;30.10;14.30;;;;;;;0.72;89.78;101786.00;5000603;28;20125;-72
2023/04/26 04:29:19;;;;;;;38.10;14.40;;;;;;;0.77;89.65;101780.94;5001154;28;20046;-71
2023/04/26 04:31:46;;;;;;;32.90;14.70;;;;;;;0.82;89.45;101784.53;4994899;28;20045;-72
2023/04/26 04:34:15;;;;;;;28.77;14.10;;;;;;;0.86;89.37;101791.59;5016901;28;20054;-73
2023/04/26 04:36:43;;;;;;;29.13;14.45;;;;;;;0.92;89.10;101783.94;4996468;28;20043;-72
2023/04/26 04:39:15;;;;;;;35.10;13.80;;;;;;;1.07;88.99;101790.31;5014816;28;20039;-73
2023/04/26 04:41:46;;;;;;;32.38;14.45;;;;;;;1.27;88.80;101795.13;5002859;28;20042;-73
2023/04/26 04:44:17;;;;;;;43.55;14.10;;;;;;;2.11;86.73;101790.88;5013558;28;20050;-70
2023/04/26 04:46:44;;;;;;;34.17;13.23;;;;;;;2.95;85.39;101800.19;4995932;28;20048;-70
2023/04/26 04:49:11;;;;;;;23.92;12.07;;;;;;;3.88;82.99;101791.13;4999688;28;20510;-70
2023/04/26 04:51:39;;;;;;;25.35;11.57;;;;;;;4.19;82.21;101788.88;4997733;28;20508;-71
2023/04/26 04:54:15;;;;;;;29.02;12.48;;;;;;;4.46;81.20;101801.38;4999977;28;20031;-71
2023/04/26 04:56:44;;;;;;;21.50;11.45;;;;;;;5.16;79.08;101798.50;5003458;28;20046;-70
2023/04/26 04:59:13;;;;;;;25.20;11.15;;;;;;;6.09;76.97;101797.28;4999335;28;20069;-70
2023/04/26 05:01:40;;;;;;;19.65;10.90;;;;;;;6.33;75.58;101796.50;5000555;28;20043;-70
2023/04/26 05:04:11;;;;;;;19.60;9.73;;;;;;;6.61;74.54;101799.19;5005599;28;20049;-70
2023/04/26 05:06:39;;;;;;;20.23;10.23;;;;;;;6.82;73.65;101797.44;5003585;28;20046;-71
2023/04/26 05:09:07;;;;;;;32.17;10.68;;;;;;;7.19;72.27;101796.56;4998729;28;20145;-71
2023/04/26 05:11:36;;;;;;;46.90;10.75;;;;;;;7.48;71.57;101796.53;5014826;28;20046;-71
2023/04/26 05:14:04;;;;;;;24.55;10.35;;;;;;;8.32;68.82;101798.84;5003309;28;20467;-71
2023/04/26 05:16:31;;;;;;;48.08;11.45;;;;;;;8.61;67.82;101796.03;5003213;28;20056;-71
2023/04/26 05:19:00;;;;;;;24.02;9.82;;;;;;;9.16;65.99;101794.72;4991959;28;20046;-72
2023/04/26 05:21:27;;;;;;;24.67;9.45;;;;;;;9.86;64.62;101794.00;4985492;28;20035;-71
2023/04/26 05:23:54;;;;;;;21.92;9.70;;;;;;;10.16;62.39;101791.88;4995152;28;20042;-71
2023/04/26 05:26:21;;;;;;;23.77;9.70;;;;;;;10.04;61.97;101798.19;5005901;28;20050;-72
2023/04/26 05:29:11;;;;;;;20.05;9.23;;;;;;;10.98;59.98;101801.25;5010036;28;20124;-70
2023/04/26 05:31:59;;;;;;;17.45;8.60;;;;;;;12.54;56.71;101809.66;5007397;28;20046;-71
2023/04/26 05:34:42;;;;;;;16.27;8.80;;;;;;;13.67;53.95;101806.81;4988060;28;20043;-70
2023/04/26 05:37:14;;;;;;;17.52;8.07;;;;;;;14.34;51.83;101812.84;4993056;28;20475;-71
2023/04/26 05:39:41;;;;;;;18.88;8.23;;;;;;;14.94;49.37;101808.34;4999900;28;20117;-71
2023/04/26 05:42:08;;;;;;;16.42;7.85;;;;;;;15.15;47.92;101803.22;5004997;28;20054;-71
2023/04/26 05:44:35;;;;;;;13.90;7.25;;;;;;;13.96;47.62;101811.31;5003527;28;20150;-71
2023/04/26 05:47:02;;;;;;;21.27;8.45;;;;;;;12.05;50.65;101816.88;5003006;28;20046;-71
2023/04/26 05:49:30;;;;;;;18.40;8.60;;;;;;;10.60;54.89;101823.78;5004727;28;20978;-71
2023/04/26 05:51:59;;;;;;;15.70;8.43;;;;;;;9.66;57.77;101832.84;4999534;28;20053;-72
2023/04/26 05:54:27;;;;;;;17.58;9.57;;;;;;;8.82;59.98;101829.22;5002870;28;20030;-72
2023/04/26 05:56:54;;;;;;;30.00;9.30;;;;;;;8.21;61.77;101833.91;5000696;28;20104;-70
2023/04/26 05:59:25;;;;;;;21.77;9.55;;;;;;;7.75;63.62;101834.97;5004416;28;20038;-70
2023/04/26 06:01:53;;;;;;;19.67;9.68;;;;;;;7.44;64.41;101821.00;4997806;28;20038;-71
2023/04/26 06:04:20;;;;;;;24.98;10.32;;;;;;;7.18;65.22;101835.03;5014169;28;20061;-69
2023/04/26 06:07:00;;;;;;;17.25;9.90;;;;;;;6.89;66.07;101830.66;5001521;28;20975;-70
2023/04/26 06:09:27;;;;;;;15.35;9.35;;;;;;;6.68;66.99;101831.50;4998662;28;20060;-70
2023/04/26 06:11:54;;;;;;;18.30;9.93;;;;;;;6.41;67.97;101834.94;5007079;28;20042;-70
2023/04/26 06:14:21;;;;;;;20.17;10.85;;;;;;;6.20;68.80;101834.00;5000411;28;20042;-71
2023/04/26 06:17:01;;;;;;;24.00;10.75;;;;;;;6.01;69.94;101838.28;4991204;28;20039;-71
2023/04/26 06:19:28;;;;;;;21.05;9.95;;;;;;;5.87;70.48;101836.41;5003710;28;20814;-70
2023/04/26 06:21:56;;;;;;;21.63;10.38;;;;;;;5.78;71.16;101845.97;5000071;28;20045;-69
2023/04/26 06:24:24;;;;;;;16.73;9.60;;;;;;;5.69;71.31;101839.84;5004665;28;20491;-70
2023/04/26 06:26:52;;;;;;;15.63;9.60;;;;;;;5.66;71.91;101842.41;5002797;28;20085;-70
2023/04/26 06:29:20;;;;;;;14.63;9.85;;;;;;;5.63;72.48;101839.78;5004527;28;20494;-70
2023/04/26 06:31:47;;;;;;;18.75;9.70;;;;;;;5.69;73.09;101837.22;5003242;28;20039;-70
2023/04/26 06:34:15;;;;;;;20.98;9.55;;;;;;;5.77;73.16;101834.63;5004162;28;20503;-69
2023/04/26 06:36:42;;;;;;;22.73;10.65;;;;;;;5.91;73.22;101834.69;5000340;28;20080;-70
2023/04/26 06:39:10;;;;;;;29.20;10.25;;;;;;;6.05;73.19;101833.06;5003783;28;20484;-70
2023/04/26 06:41:38;;;;;;;20.50;9.57;;;;;;;6.15;72.88;101839.22;4995693;28;20481;-70
2023/04/26 06:44:08;;;;;;;23.38;9.88;;;;;;;6.29;73.15;101835.75;4994037;28;20035;-70
2023/04/26 06:46:41;;;;;;;16.63;8.90;;;;;;;6.42;73.07;101837.56;5002272;28;20043;-70
2023/04/26 06:49:10;;;;;;;36.20;11.85;;;;;;;6.55;73.25;101835.84;4998468;28;20090;-70
2023/04/26 06:51:37;;;;;;;22.95;8.65;;;;;;;6.78;73.17;101843.72;5002295;28;20216;-70
2023/04/26 06:54:05;;;;;;;25.83;9.20;;;;;;;7.05;72.82;101841.16;5004568;28;20601;-70
2023/04/26 06:56:32;;;;;;;18.05;7.50;;;;;;;7.27;72.66;101842.03;5000041;28;20973;-70
2023/04/26 06:59:06;;;;;;;19.30;8.52;;;;;;;7.39;72.29;101839.38;5002152;28;20050;-70
2023/04/26 07:01:35;;;;;;;16.20;7.80;;;;;;;7.54;72.37;101840.25;5012500;28;20055;-70
2023/04/26 07:04:11;;;;;;;19.15;7.93;;;;;;;7.66;72.01;101841.97;5007331;28;20562;-71
2023/04/26 07:06:39;;;;;;;39.88;9.88;;;;;;;7.75;70.33;101850.72;4985871;28;20035;-70
2023/04/26 07:09:06;;;;;;;36.13;10.13;;;;;;;7.79;70.38;101851.56;4995932;28;20497;-70
2023/04/26 07:11:34;;;;;;;20.63;8.20;;;;;;;7.92;70.95;101858.53;4989966;28;20046;-70
2023/04/26 07:14:01;;;;;;;24.80;8.65;;;;;;;8.10;70.75;101854.09;4984625;28;20583;-70
2023/04/26 07:16:28;;;;;;;19.65;7.55;;;;;;;8.25;71.14;101858.41;4993909;28;20125;-71
2023/04/26 07:18:58;;;;;;;18.08;6.90;;;;;;;8.35;70.30;101852.25;5004390;28;20034;-70
2023/04/26 07:21:25;;;;;;;14.75;6.53;;;;;;;8.47;70.35;101848.69;4988594;28;20526;-70
2023/04/26 07:23:55;;;;;;;15.60;6.03;;;;;;;8.62;69.41;101854.75;5000329;28;20043;-70
2023/04/26 07:26:27;;;;;;;16.77;6.30;;;;;;;8.76;69.41;101849.41;4985725;28;20093;-70
2023/04/26 07:28:55;;;;;;;14.07;5.68;;;;;;;8.87;69.31;101844.97;5016961;28;20917;-70
2023/04/26 07:31:22;;;;;;;14.48;5.70;;;;;;;8.99;68.07;101852.75;5016558;28;20050;-70
2023/04/26 07:33:49;;;;;;;14.18;6.55;;;;;;;9.09;68.63;101850.91;4988216;28;20590;-70
2023/04/26 07:36:16;;;;;;;15.15;6.10;;;;;;;9.23;68.37;101847.31;5024475;28;20977;-71
2023/04/26 07:38:43;;;;;;;15.20;5.72;;;;;;;9.36;68.51;101845.44;5023861;28;20498;-70
2023/04/26 07:41:11;;;;;;;13.80;5.47;;;;;;;9.51;68.44;101844.41;5004136;28;20053;-70
2023/04/26 07:43:38;;;;;;;15.32;5.55;;;;;;;9.62;68.01;101845.19;5004736;28;20053;-70
2023/04/26 07:46:05;;;;;;;18.52;5.43;;;;;;;9.71;67.99;101838.97;5005766;28;20042;-71
2023/04/26 07:48:33;;;;;;;13.40;4.32;;;;;;;9.76;65.67;101839.78;5007288;28;20062;-70
2023/04/26 07:51:09;;;;;;;14.35;3.92;;;;;;;9.78;65.14;101838.00;5006297;28;20038;-70
2023/04/26 07:53:38;;;;;;;7.85;3.30;;;;;;;9.75;61.87;101840.66;5025826;28;20079;-70
2023/04/26 07:56:07;;;;;;;10.80;3.90;;;;;;;9.72;60.55;101845.94;5028091;28;20048;-71
2023/04/26 07:58:37;;;;;;;20.45;3.70;;;;;;;9.69;60.41;101846.00;5024067;28;20034;-70
2023/04/26 08:01:05;;;;;;;8.25;2.90;;;;;;;9.71;61.15;101844.22;5006516;28;20049;-71
2023/04/26 08:03:32;;;;;;;10.00;2.65;;;;;;;9.77;58.33;101842.38;5002781;28;20610;-71
2023/04/26 08:06:00;;;;;;;10.95;2.88;;;;;;;9.80;58.51;101841.50;5001664;28;20046;-71
2023/04/26 08:08:28;;;;;;;8.02;2.60;;;;;;;9.86;58.21;101840.56;5001822;28;20042;-69
2023/04/26 08:10:55;;;;;;;11.95;2.92;;;;;;;9.94;57.99;101843.97;5015501;28;20419;-70
2023/04/26 08:13:22;;;;;;;9.90;3.05;;;;;;;9.99;59.13;101846.53;5027791;28;20092;-70
2023/04/26 08:15:49;;;;;;;8.32;2.38;;;;;;;10.02;59.25;101850.00;5007384;28;20042;-71
2023/04/26 08:18:16;;;;;;;6.85;2.45;;;;;;;10.03;57.54;101850.88;4992534;28;20030;-71
2023/04/26 08:20:43;;;;;;;14.85;2.88;;;;;;;9.93;56.36;101850.97;4998003;28;20035;-71
2023/04/26 08:23:11;;;;;;;9.00;3.10;;;;;;;9.84;58.00;101853.72;5020007;28;20049;-71
2023/04/26 08:25:38;;;;;;;12.77;2.58;;;;;;;9.78;57.89;101854.66;5012760;28;20072;-71
2023/04/26 08:28:07;;;;;;;6.50;2.53;;;;;;;9.74;58.28;101862.59;5009300;28;20039;-71
2023/04/26 08:30:34;;;;;;;22.70;3.90;;;;;;;9.65;56.61;101860.97;5009208;28;20553;-71
2023/04/26 08:33:02;;;;;;;18.27;3.75;;;;;;;9.55;57.50;101865.44;5011297;28;20034;-71
2023/04/26 08:35:29;;;;;;;9.57;3.42;;;;;;;9.51;58.59;101866.38;5004981;28;20133;-70
2023/04/26 08:37:56;;;;;;;11.02;3.40;;;;;;;9.60;59.21;101865.38;5005962;28;20117;-71
2023/04/26 08:40:24;;;;;;;14.52;3.15;;;;;;;9.66;58.07;101875.88;5002407;28;20053;-71
2023/04/26 08:42:52;;;;;;;8.50;3.22;;;;;;;9.67;58.44;101868.84;4995195;28;20038;-71
2023/04/26 08:45:20;;;;;;;10.77;3.38;;;;;;;9.70;58.88;101858.28;4988635;28;20055;-71
2023/04/26 08:47:57;;;;;;;13.85;3.50;;;;;;;9.84;57.52;101861.63;5001211;28;20035;-71
2023/04/26 08:50:25;;;;;;;21.90;3.25;;;;;;;9.92;55.62;101864.19;5002910;28;20146;-71
2023/04/26 08:52:52;;;;;;;19.25;3.58;;;;;;;10.00;55.96;101851.78;4997616;28;20043;-71
2023/04/26 08:55:20;;;;;;;12.25;2.60;;;;;;;10.36;57.07;101851.34;5005235;28;20034;-71
2023/04/26 08:57:49;;;;;;;13.57;3.50;;;;;;;10.86;56.86;101857.69;5004750;28;20503;-71
2023/04/26 09:00:18;;;;;;;7.75;2.70;;;;;;;11.31;57.25;101849.06;4992546;28;20053;-71
2023/04/26 09:02:50;;;;;;;11.63;2.45;;;;;;;11.60;55.89;101839.72;4998410;28;20112;-71
2023/04/26 09:05:23;;;;;;;11.75;2.03;;;;;;;11.57;52.26;101845.09;4992165;28;20047;-70
2023/04/26 09:07:56;;;;;;;6.75;2.78;;;;;;;11.42;51.65;101842.72;4994232;28;20070;-70
2023/04/26 09:10:24;;;;;;;5.50;2.20;;;;;;;11.22;51.29;101843.94;5001070;28;20070;-70
2023/04/26 09:12:52;;;;;;;15.65;2.80;;;;;;;11.00;51.56;101848.69;5020526;28;20620;-70
2023/04/26 09:15:21;;;;;;;9.20;3.20;;;;;;;10.83;52.12;101841.94;5000952;28;20070;-71
2023/04/26 09:17:50;;;;;;;5.97;2.20;;;;;;;10.75;51.58;101843.78;4999387;28;20043;-70
2023/04/26 09:20:28;;;;;;;11.52;2.38;;;;;;;10.60;51.45;101846.66;5003052;28;20514;-71
2023/04/26 09:23:07;;;;;;;5.30;2.22;;;;;;;10.47;51.76;101848.63;5004713;28;20045;-71
2023/04/26 09:25:36;;;;;;;6.13;2.25;;;;;;;10.37;51.46;101842.53;4985676;28;20507;-70
2023/04/26 09:28:18;;;;;;;7.80;2.20;;;;;;;10.34;51.67;101843.47;5001573;28;20039;-70
2023/04/26 09:30:45;;;;;;;6.65;2.42;;;;;;;10.29;52.02;101839.16;4993674;28;20067;-71
2023/04/26 09:33:13;;;;;;;8.27;2.47;;;;;;;10.29;52.30;101840.00;4986476;28;20049;-70
2023/04/26 09:35:43;;;;;;;5.53;2.42;;;;;;;10.26;52.64;101838.28;5003537;28;20337;-71
2023/04/26 09:38:18;;;;;;;20.35;3.22;;;;;;;10.32;52.15;101834.72;4988781;28;20039;-71
2023/04/26 09:40:49;;;;;;;;;;;;;;;10.50;52.95;101838.00;5003005;28;20089;-71
2023/04/26 09:43:21;;;;;;;12.23;2.70;;;;;;;10.84;53.90;101826.97;4997030;28;19962;-70
2023/04/26 09:45:56;;;;;;;13.80;2.80;;;;;;;11.12;54.01;101830.03;4993251;28;20539;-70
2023/04/26 09:48:31;;;;;;;8.70;2.38;;;;;;;11.46;51.80;101831.22;4997574;28;20043;-70
2023/04/26 09:51:09;;;;;;;8.32;2.50;;;;;;;11.78;51.95;101827.94;4995735;28;20031;-71
2023/04/26 09:53:41;;;;;;;12.13;2.30;;;;;;;12.17;50.61;101824.56;5005358;28;20044;-71
2023/04/26 09:56:18;;;;;;;8.00;2.08;;;;;;;12.49;50.23;101827.38;5001018;28;20711;-71
2023/04/26 09:58:45;;;;;;;8.82;2.30;;;;;;;12.72;48.00;101825.09;4998272;28;20046;-70
2023/04/26 10:01:17;;;;;;;6.43;2.30;;;;;;;12.86;48.58;101832.69;4994225;28;20034;-71
2023/04/26 10:03:46;;;;;;;8.70;2.38;;;;;;;12.99;46.45;101825.31;4993365;28;20050;-71
2023/04/26 10:06:15;;;;;;;4.85;1.98;;;;;;;12.93;45.45;101825.50;5000292;28;20510;-71
2023/04/26 10:08:44;;;;;;;7.10;2.35;;;;;;;12.73;45.73;101824.19;4993049;28;20479;-70
2023/04/26 10:11:11;;;;;;;6.32;1.90;;;;;;;12.56;47.11;101821.09;4988586;28;20051;-71
2023/04/26 10:13:41;;;;;;;8.20;2.55;;;;;;;12.61;45.88;101824.47;5005066;28;20043;-71
2023/04/26 10:16:09;;;;;;;24.50;3.05;;;;;;;12.65;45.50;101812.03;5001611;28;20037;-70
2023/04/26 10:18:36;;;;;;;5.88;1.92;;;;;;;12.63;45.29;101822.66;4994848;28;20055;-70
2023/04/26 10:21:32;;;;;;;5.30;1.75;;;;;;;12.55;44.32;101821.97;4997205;28;20217;-72
2023/04/26 10:24:00;;;;;;;4.95;1.90;;;;;;;12.39;43.40;101826.75;4997836;28;20051;-71
2023/04/26 10:26:51;;;;;;;3.95;1.70;;;;;;;12.22;43.44;101821.81;5019564;28;20089;-71
2023/04/26 10:29:46;;;;;;;36.90;3.92;;;;;;;12.08;43.10;101819.47;5005936;28;20134;-70
2023/04/26 10:32:16;;;;;;;9.73;2.50;;;;;;;11.95;44.13;101821.47;4987901;28;20511;-70
2023/04/26 10:34:44;;;;;;;5.25;2.20;;;;;;;11.80;44.05;101823.50;5008359;28;20041;-70
2023/04/26 10:37:14;;;;;;;12.43;2.10;;;;;;;11.64;45.59;101828.22;5006388;28;20042;-70
2023/04/26 10:39:44;;;;;;;7.65;2.38;;;;;;;11.58;46.34;101831.00;5001552;28;20090;-70
2023/04/26 10:42:21;;;;;;;5.85;2.10;;;;;;;11.40;44.66;101829.56;4986699;28;20042;-71
2023/04/26 10:44:54;;;;;;;9.15;2.10;;;;;;;11.18;46.36;101827.28;4990418;28;20050;-71
2023/04/26 10:47:36;;;;;;;12.82;2.47;;;;;;;11.11;46.01;101824.75;4994245;28;20503;-71
2023/04/26 10:50:09;;;;;;;10.02;2.55;;;;;;;11.09;46.29;101816.88;5000170;28;20507;-71
2023/04/26 10:53:04;;;;;;;6.32;2.63;;;;;;;11.10;46.50;101817.75;4989601;28;20042;-71
2023/04/26 10:55:41;;;;;;;15.10;3.17;;;;;;;11.07;47.42;101818.66;4990964;28;20042;-71
2023/04/26 10:58:34;;;;;;;6.25;2.00;;;;;;;11.11;47.41;101814.22;4997640;28;20433;-71
2023/04/26 11:01:19;;;;;;;11.45;2.80;;;;;;;11.09;47.89;101813.38;5003806;28;20145;-70
2023/04/26 11:04:11;;;;;;;15.45;2.83;;;;;;;11.07;48.92;101809.91;4999806;28;20043;-71
2023/04/26 11:06:53;;;;;;;8.93;2.45;;;;;;;11.12;49.17;101814.22;5002739;28;20093;-70
2023/04/26 11:09:39;;;;;;;9.30;2.55;;;;;;;11.24;49.02;101812.25;4999850;28;20042;-71
2023/04/26 11:12:12;;;;;;;12.38;2.50;;;;;;;11.49;47.96;101804.75;4998979;28;21132;-71
2023/04/26 11:14:45;;;;;;;12.10;2.70;;;;;;;11.85;46.79;101806.72;5003842;28;20047;-70
2023/04/26 11:17:12;;;;;;;9.60;2.50;;;;;;;12.17;45.14;101802.53;5003672;28;20043;-70
2023/04/26 11:19:45;;;;;;;9.40;1.90;;;;;;;12.40;43.20;101802.03;5000574;28;20121;-69
2023/04/26 11:22:12;;;;;;;13.85;2.42;;;;;;;12.56;42.48;101797.28;5005055;28;20050;-70
2023/04/26 11:24:41;;;;;;;4.43;1.95;;;;;;;12.75;43.80;101797.69;5005411;28;20074;-70
2023/04/26 11:27:10;;;;;;;6.88;1.85;;;;;;;13.05;44.83;101798.72;5004645;28;20039;-70
2023/04/26 11:29:38;;;;;;;12.35;2.50;;;;;;;13.36;43.03;101799.69;5007527;28;20049;-70
2023/04/26 11:32:05;;;;;;;4.40;1.90;;;;;;;13.56;40.46;101796.53;5005368;28;20046;-70